sensor_id;sensor_type;location;lat;lon;timestamp;pressure;altitude;pressure_sealevel;temperature;humidity
39491;BME280;25175;50.140;18.990;2022-12-18T00:02:19;100003.75;;;-3.69;60.96
39491;BME280;25175;50.140;18.990;2022-12-18T00:05:29;99993.50;;;-3.84;61.29
39491;BME280;25175;50.140;18.990;2022-12-18T00:08:40;100020.06;;;-3.70;61.21
39491;BME280;25175;50.140;18.990;2022-12-18T00:11:49;100019.97;;;-3.68;61.20
39491;BME280;25175;50.140;18.990;2022-12-18T00:14:57;100009.63;;;-3.67;61.38
39491;BME280;25175;50.140;18.990;2022-12-18T00:18:03;100001.00;;;-3.81;61.29
39491;BME280;25175;50.140;18.990;2022-12-18T00:21:19;100023.53;;;-3.71;61.32
39491;BME280;25175;50.140;18.990;2022-12-18T00:24:26;100026.91;;;-3.70;61.13
39491;BME280;25175;50.140;18.990;2022-12-18T00:27:34;100031.81;;;-3.66;61.01
39491;BME280;25175;50.140;18.990;2022-12-18T00:30:43;100023.94;;;-3.63;61.20
39491;BME280;25175;50.140;18.990;2022-12-18T00:33:48;100032.22;;;-3.58;61.17
39491;BME280;25175;50.140;18.990;2022-12-18T00:36:55;100036.38;;;-3.55;60.96
39491;BME280;25175;50.140;18.990;2022-12-18T00:40:00;100047.03;;;-3.47;61.13
39491;BME280;25175;50.140;18.990;2022-12-18T00:43:20;100055.25;;;-3.41;60.68
39491;BME280;25175;50.140;18.990;2022-12-18T00:46:25;100060.13;;;-3.36;60.49
39491;BME280;25175;50.140;18.990;2022-12-18T00:52:59;99732.25;;;-5.28;60.21
39491;BME280;25175;50.140;18.990;2022-12-18T00:56:06;100055.81;;;-3.36;60.32
39491;BME280;25175;50.140;18.990;2022-12-18T00:59:16;100061.63;;;-3.32;60.28
39491;BME280;25175;50.140;18.990;2022-12-18T01:02:37;100076.69;;;-3.26;60.09
39491;BME280;25175;50.140;18.990;2022-12-18T01:05:42;100043.25;;;-3.40;60.06
39491;BME280;25175;50.140;18.990;2022-12-18T01:08:48;100082.31;;;-3.20;59.74
39491;BME280;25175;50.140;18.990;2022-12-18T01:11:54;99646.31;;;-5.80;59.63
39491;BME280;25175;50.140;18.990;2022-12-18T01:15:01;100081.31;;;-3.17;59.92
39491;BME280;25175;50.140;18.990;2022-12-18T01:18:09;100088.03;;;-3.15;59.72
39491;BME280;25175;50.140;18.990;2022-12-18T01:21:16;100088.84;;;-3.14;59.58
39491;BME280;25175;50.140;18.990;2022-12-18T01:24:22;100077.78;;;-3.15;58.99
39491;BME280;25175;50.140;18.990;2022-12-18T01:27:29;100081.31;;;-3.17;59.22
39491;BME280;25175;50.140;18.990;2022-12-18T01:30:34;100082.06;;;-3.15;59.47
39491;BME280;25175;50.140;18.990;2022-12-18T01:34:04;100075.69;;;-3.08;59.30
39491;BME280;25175;50.140;18.990;2022-12-18T01:37:18;99936.38;;;-4.03;59.07
39491;BME280;25175;50.140;18.990;2022-12-18T01:40:25;100074.78;;;-3.07;58.54
39491;BME280;25175;50.140;18.990;2022-12-18T01:43:46;100085.22;;;-3.10;58.66
39491;BME280;25175;50.140;18.990;2022-12-18T01:46:54;100095.56;;;-3.12;58.81
39491;BME280;25175;50.140;18.990;2022-12-18T01:50:08;100088.84;;;-3.14;58.73
39491;BME280;25175;50.140;18.990;2022-12-18T01:53:24;100102.53;;;-3.14;58.84
39491;BME280;25175;50.140;18.990;2022-12-18T01:56:29;100104.19;;;-3.13;58.65
39491;BME280;25175;50.140;18.990;2022-12-18T01:59:37;100091.75;;;-3.20;58.61
39491;BME280;25175;50.140;18.990;2022-12-18T02:02:46;100103.84;;;-3.07;58.22
39491;BME280;25175;50.140;18.990;2022-12-18T02:06:09;100121.16;;;-3.10;58.40
39491;BME280;25175;50.140;18.990;2022-12-18T02:09:36;100128.03;;;-3.11;58.37
39491;BME280;25175;50.140;18.990;2022-12-18T02:12:59;100123.72;;;-3.10;58.39
39491;BME280;25175;50.140;18.990;2022-12-18T02:16:28;100134.56;;;-3.05;58.32
39491;BME280;25175;50.140;18.990;2022-12-18T02:19:52;100133.66;;;-3.04;58.42
39491;BME280;25175;50.140;18.990;2022-12-18T02:23:59;100056.63;;;-3.51;58.16
39491;BME280;25175;50.140;18.990;2022-12-18T02:27:35;100142.84;;;-3.00;58.31
39491;BME280;25175;50.140;18.990;2022-12-18T02:30:59;100139.38;;;-2.99;58.36
39491;BME280;25175;50.140;18.990;2022-12-18T02:34:13;100147.09;;;-2.99;58.20
39491;BME280;25175;50.140;18.990;2022-12-18T02:37:24;100147.09;;;-2.99;58.20
39491;BME280;25175;50.140;18.990;2022-12-18T02:40:37;100151.56;;;-3.03;57.97
39491;BME280;25175;50.140;18.990;2022-12-18T02:43:55;100144.09;;;-3.07;58.12
39491;BME280;25175;50.140;18.990;2022-12-18T02:47:05;100147.56;;;-3.08;58.21
39491;BME280;25175;50.140;18.990;2022-12-18T02:50:24;99766.34;;;-5.44;58.04
39491;BME280;25175;50.140;18.990;2022-12-18T02:53:45;100166.03;;;-3.17;58.23
39491;BME280;25175;50.140;18.990;2022-12-18T02:57:13;100177.13;;;-3.17;58.51
39491;BME280;25175;50.140;18.990;2022-12-18T03:00:43;100178.22;;;-3.21;58.52
39491;BME280;25175;50.140;18.990;2022-12-18T03:03:57;100193.00;;;-3.26;58.78
39491;BME280;25175;50.140;18.990;2022-12-18T03:07:15;100186.31;;;-3.28;58.93
39491;BME280;25175;50.140;18.990;2022-12-18T03:10:35;100189.84;;;-3.31;59.02
39491;BME280;25175;50.140;18.990;2022-12-18T03:13:54;100188.03;;;-3.29;59.27
39491;BME280;25175;50.140;18.990;2022-12-18T03:17:13;100203.34;;;-3.27;59.22
39491;BME280;25175;50.140;18.990;2022-12-18T03:20:26;100186.31;;;-3.28;59.34
39491;BME280;25175;50.140;18.990;2022-12-18T03:23:41;100197.31;;;-3.26;59.29
39491;BME280;25175;50.140;18.990;2022-12-18T03:26:56;100171.38;;;-3.37;59.25
39491;BME280;25175;50.140;18.990;2022-12-18T03:30:09;100217.06;;;-3.44;59.10
39491;BME280;25175;50.140;18.990;2022-12-18T03:33:26;100196.50;;;-3.27;59.15
39491;BME280;25175;50.140;18.990;2022-12-18T03:36:42;100202.75;;;-3.32;59.22
39491;BME280;25175;50.140;18.990;2022-12-18T03:39:49;100201.03;;;-3.32;59.45
39491;BME280;25175;50.140;18.990;2022-12-18T03:43:03;100221.56;;;-3.32;59.45
39491;BME280;25175;50.140;18.990;2022-12-18T03:46:23;100209.66;;;-3.33;59.56
39491;BME280;25175;50.140;18.990;2022-12-18T03:49:53;100202.75;;;-3.32;59.58
39491;BME280;25175;50.140;18.990;2022-12-18T03:53:20;100212.34;;;-3.36;59.39
39491;BME280;25175;50.140;18.990;2022-12-18T03:56:38;100218.34;;;-3.35;59.69
39491;BME280;25175;50.140;18.990;2022-12-18T03:59:54;100211.38;;;-3.33;59.79
39491;BME280;25175;50.140;18.990;2022-12-18T04:03:07;100222.38;;;-3.31;59.69
39491;BME280;25175;50.140;18.990;2022-12-18T04:06:23;100228.09;;;-3.26;59.55
39491;BME280;25175;50.140;18.990;2022-12-18T04:09:44;100226.22;;;-3.23;59.55
39491;BME280;25175;50.140;18.990;2022-12-18T04:12:58;100233.03;;;-3.22;59.62
39491;BME280;25175;50.140;18.990;2022-12-18T04:19:41;100247.25;;;-3.16;59.19
39491;BME280;25175;50.140;18.990;2022-12-18T04:22:51;100247.41;;;-3.19;59.15
39491;BME280;25175;50.140;18.990;2022-12-18T04:25:56;100244.09;;;-3.21;59.27
39491;BME280;25175;50.140;18.990;2022-12-18T04:29:20;100221.03;;;-3.38;59.17
39491;BME280;25175;50.140;18.990;2022-12-18T04:32:26;100258.00;;;-3.25;59.24
39491;BME280;25175;50.140;18.990;2022-12-18T04:35:32;100255.44;;;-3.25;59.21
39491;BME280;25175;50.140;18.990;2022-12-18T04:38:43;100253.69;;;-3.25;59.25
39491;BME280;25175;50.140;18.990;2022-12-18T04:41:52;100275.22;;;-3.27;59.24
39491;BME280;25175;50.140;18.990;2022-12-18T04:44:57;100281.28;;;-3.28;59.23
39491;BME280;25175;50.140;18.990;2022-12-18T04:48:04;100276.28;;;-3.31;59.18
39491;BME280;25175;50.140;18.990;2022-12-18T04:51:19;100273.09;;;-3.36;59.25
39491;BME280;25175;50.140;18.990;2022-12-18T04:54:27;100253.75;;;-3.59;59.36
39491;BME280;25175;50.140;18.990;2022-12-18T04:57:33;100280.06;;;-3.38;59.40
39491;BME280;25175;50.140;18.990;2022-12-18T05:00:39;100297.19;;;-3.39;59.44
39491;BME280;25175;50.140;18.990;2022-12-18T05:03:45;100301.50;;;-3.39;59.54
39491;BME280;25175;50.140;18.990;2022-12-18T05:06:54;100272.22;;;-3.52;59.43
39491;BME280;25175;50.140;18.990;2022-12-18T05:10:02;100301.63;;;-3.42;59.45
39491;BME280;25175;50.140;18.990;2022-12-18T05:13:10;100311.22;;;-3.46;59.47
39491;BME280;25175;50.140;18.990;2022-12-18T05:16:19;100304.38;;;-3.45;59.63
39491;BME280;25175;50.140;18.990;2022-12-18T05:19:25;100311.16;;;-3.44;59.74
39491;BME280;25175;50.140;18.990;2022-12-18T05:22:44;100313.41;;;-3.38;59.83
39491;BME280;25175;50.140;18.990;2022-12-18T05:26:05;100312.97;;;-3.29;59.72
39491;BME280;25175;50.140;18.990;2022-12-18T05:29:11;100322.25;;;-3.27;59.51
39491;BME280;25175;50.140;18.990;2022-12-18T05:32:17;100317.94;;;-3.26;59.45
39491;BME280;25175;50.140;18.990;2022-12-18T05:35:23;100316.22;;;-3.26;59.33
39491;BME280;25175;50.140;18.990;2022-12-18T05:38:31;100317.19;;;-3.28;59.65
39491;BME280;25175;50.140;18.990;2022-12-18T05:41:42;100313.72;;;-3.27;59.56
39491;BME280;25175;50.140;18.990;2022-12-18T05:44:50;100321.41;;;-3.27;59.39
39491;BME280;25175;50.140;18.990;2022-12-18T05:47:55;100327.16;;;-3.22;59.56
39491;BME280;25175;50.140;18.990;2022-12-18T05:51:12;100334.69;;;-3.19;59.19
39491;BME280;25175;50.140;18.990;2022-12-18T05:54:19;100332.72;;;-3.14;59.29
39491;BME280;25175;50.140;18.990;2022-12-18T05:57:28;100330.75;;;-3.09;59.45
39491;BME280;25175;50.140;18.990;2022-12-18T06:00:35;100330.53;;;-3.05;59.09
39491;BME280;25175;50.140;18.990;2022-12-18T06:03:44;100331.22;;;-3.01;59.08
39491;BME280;25175;50.140;18.990;2022-12-18T06:06:50;100398.41;;;-2.93;58.89
39491;BME280;25175;50.140;18.990;2022-12-18T06:09:58;100321.84;;;-3.02;58.65
39491;BME280;25175;50.140;18.990;2022-12-18T06:13:06;100350.09;;;-2.85;58.28
39491;BME280;25175;50.140;18.990;2022-12-18T06:16:30;100345.53;;;-2.80;58.04
39491;BME280;25175;50.140;18.990;2022-12-18T06:19:36;100350.50;;;-2.77;58.14
39491;BME280;25175;50.140;18.990;2022-12-18T06:22:43;100335.56;;;-2.86;58.07
39491;BME280;25175;50.140;18.990;2022-12-18T06:25:48;100357.09;;;-2.72;57.80
39491;BME280;25175;50.140;18.990;2022-12-18T06:28:57;100362.13;;;-2.70;57.79
39491;BME280;25175;50.140;18.990;2022-12-18T06:32:03;100369.81;;;-2.70;57.69
39491;BME280;25175;50.140;18.990;2022-12-18T06:35:09;100366.66;;;-2.75;57.39
39491;BME280;25175;50.140;18.990;2022-12-18T06:38:23;100374.53;;;-2.78;57.63
39491;BME280;25175;50.140;18.990;2022-12-18T06:41:32;100378.16;;;-2.82;57.32
39491;BME280;25175;50.140;18.990;2022-12-18T06:44:40;100390.03;;;-2.80;57.42
39491;BME280;25175;50.140;18.990;2022-12-18T06:47:46;100388.13;;;-2.76;57.48
39491;BME280;25175;50.140;18.990;2022-12-18T06:50:55;100392.34;;;-2.75;57.64
39491;BME280;25175;50.140;18.990;2022-12-18T06:58:05;100399.84;;;-2.71;57.56
39491;BME280;25175;50.140;18.990;2022-12-18T07:01:15;100411.78;;;-2.70;57.19
39491;BME280;25175;50.140;18.990;2022-12-18T07:04:20;100413.44;;;-2.69;57.04
39491;BME280;25175;50.140;18.990;2022-12-18T07:07:30;100416.84;;;-2.68;57.21
39491;BME280;25175;50.140;18.990;2022-12-18T07:10:41;100424.47;;;-2.67;57.14
39491;BME280;25175;50.140;18.990;2022-12-18T07:13:47;100422.78;;;-2.68;57.02
39491;BME280;25175;50.140;18.990;2022-12-18T07:16:55;100421.19;;;-2.70;56.88
39491;BME280;25175;50.140;18.990;2022-12-18T07:20:01;100421.31;;;-2.72;56.79
39491;BME280;25175;50.140;18.990;2022-12-18T07:23:08;100434.22;;;-2.73;56.81
39491;BME280;25175;50.140;18.990;2022-12-18T07:26:15;100442.00;;;-2.75;56.91
39491;BME280;25175;50.140;18.990;2022-12-18T07:29:26;100463.41;;;-2.74;56.80
39491;BME280;25175;50.140;18.990;2022-12-18T07:32:35;100450.00;;;-2.81;56.51
39491;BME280;25175;50.140;18.990;2022-12-18T07:35:44;100448.56;;;-2.86;56.74
39491;BME280;25175;50.140;18.990;2022-12-18T07:38:50;100455.44;;;-2.87;57.15
39491;BME280;25175;50.140;18.990;2022-12-18T07:41:56;100452.72;;;-2.84;57.23
39491;BME280;25175;50.140;18.990;2022-12-18T07:45:18;100462.94;;;-2.82;56.87
39491;BME280;25175;50.140;18.990;2022-12-18T07:48:26;100452.50;;;-2.79;56.95
39491;BME280;25175;50.140;18.990;2022-12-18T07:51:34;100451.53;;;-2.77;56.83
39491;BME280;25175;50.140;18.990;2022-12-18T07:54:42;100448.03;;;-2.76;56.93
39491;BME280;25175;50.140;18.990;2022-12-18T07:57:53;100452.88;;;-2.70;56.85
39491;BME280;25175;50.140;18.990;2022-12-18T08:01:03;100454.53;;;-2.69;56.63
39491;BME280;25175;50.140;18.990;2022-12-18T08:04:12;100446.75;;;-2.67;56.42
39491;BME280;25175;50.140;18.990;2022-12-18T08:07:17;100453.56;;;-2.66;56.20
39491;BME280;25175;50.140;18.990;2022-12-18T08:13:44;100450.97;;;-2.66;55.66
39491;BME280;25175;50.140;18.990;2022-12-18T08:16:58;100463.59;;;-2.62;55.92
39491;BME280;25175;50.140;18.990;2022-12-18T08:20:07;100465.28;;;-2.61;55.60
39491;BME280;25175;50.140;18.990;2022-12-18T08:23:16;100388.16;;;-3.10;55.48
39491;BME280;25175;50.140;18.990;2022-12-18T08:26:25;100443.34;;;-2.85;55.77
39491;BME280;25175;50.140;18.990;2022-12-18T08:29:41;100475.16;;;-2.70;55.98
39491;BME280;25175;50.140;18.990;2022-12-18T08:32:50;100472.44;;;-2.67;55.98
39491;BME280;25175;50.140;18.990;2022-12-18T08:36:01;100475.88;;;-2.67;55.73
39491;BME280;25175;50.140;18.990;2022-12-18T08:39:08;100483.47;;;-2.65;55.52
39491;BME280;25175;50.140;18.990;2022-12-18T08:42:14;100488.53;;;-2.64;55.72
39491;BME280;25175;50.140;18.990;2022-12-18T08:45:35;100488.59;;;-2.65;55.28
39491;BME280;25175;50.140;18.990;2022-12-18T08:48:41;100496.56;;;-2.70;55.54
39491;BME280;25175;50.140;18.990;2022-12-18T08:51:54;100495.88;;;-2.73;55.79
39491;BME280;25175;50.140;18.990;2022-12-18T08:55:00;100513.63;;;-2.69;55.80
39491;BME280;25175;50.140;18.990;2022-12-18T08:58:05;100505.69;;;-2.64;55.60
39491;BME280;25175;50.140;18.990;2022-12-18T09:01:14;100521.72;;;-2.59;55.58
39491;BME280;25175;50.140;18.990;2022-12-18T09:04:19;100494.97;;;-2.72;55.45
39491;BME280;25175;50.140;18.990;2022-12-18T09:07:28;100528.66;;;-2.61;55.54
39491;BME280;25175;50.140;18.990;2022-12-18T09:10:33;100516.56;;;-2.59;55.68
39491;BME280;25175;50.140;18.990;2022-12-18T09:13:45;100384.53;;;-3.40;55.78
39491;BME280;25175;50.140;18.990;2022-12-18T09:16:51;100525.88;;;-2.57;55.41
39491;BME280;25175;50.140;18.990;2022-12-18T09:19:57;100527.38;;;-2.53;55.30
39491;BME280;25175;50.140;18.990;2022-12-18T09:23:06;100540.97;;;-2.51;55.10
39491;BME280;25175;50.140;18.990;2022-12-18T09:26:13;100510.69;;;-2.61;55.10
39491;BME280;25175;50.140;18.990;2022-12-18T09:29:21;100524.50;;;-2.47;55.33
39491;BME280;25175;50.140;18.990;2022-12-18T09:32:27;100520.81;;;-2.41;54.94
39491;BME280;25175;50.140;18.990;2022-12-18T09:35:36;100525.13;;;-2.42;54.72
39491;BME280;25175;50.140;18.990;2022-12-18T09:38:45;100535.56;;;-2.45;54.71
39491;BME280;25175;50.140;18.990;2022-12-18T09:41:52;100527.84;;;-2.45;54.43
39491;BME280;25175;50.140;18.990;2022-12-18T09:45:00;100510.44;;;-2.57;54.76
39491;BME280;25175;50.140;18.990;2022-12-18T09:48:15;100531.25;;;-2.44;54.83
39491;BME280;25175;50.140;18.990;2022-12-18T09:51:32;100542.38;;;-2.44;54.71
39491;BME280;25175;50.140;18.990;2022-12-18T09:54:50;100538.63;;;-2.38;54.57
39491;BME280;25175;50.140;18.990;2022-12-18T09:58:15;100538.25;;;-2.31;54.50
39491;BME280;25175;50.140;18.990;2022-12-18T10:01:26;100533.72;;;-2.26;54.21
39491;BME280;25175;50.140;18.990;2022-12-18T10:04:33;100528.25;;;-2.20;54.30
39491;BME280;25175;50.140;18.990;2022-12-18T10:07:50;100516.75;;;-2.13;54.16
39491;BME280;25175;50.140;18.990;2022-12-18T10:11:23;100532.78;;;-2.08;53.73
39491;BME280;25175;50.140;18.990;2022-12-18T10:14:44;100518.25;;;-2.09;53.53
39491;BME280;25175;50.140;18.990;2022-12-18T10:18:01;100520.75;;;-2.07;53.25
39491;BME280;25175;50.140;18.990;2022-12-18T10:21:18;100500.22;;;-2.24;52.96
39491;BME280;25175;50.140;18.990;2022-12-18T10:24:44;100517.44;;;-2.26;52.89
39491;BME280;25175;50.140;18.990;2022-12-18T10:28:11;100513.00;;;-2.23;53.44
39491;BME280;25175;50.140;18.990;2022-12-18T10:31:21;100514.56;;;-2.20;53.06
39491;BME280;25175;50.140;18.990;2022-12-18T10:34:27;100504.13;;;-2.17;53.30
39491;BME280;25175;50.140;18.990;2022-12-18T10:38:05;100497.75;;;-2.10;53.29
39491;BME280;25175;50.140;18.990;2022-12-18T10:41:24;100496.69;;;-2.06;53.51
39491;BME280;25175;50.140;18.990;2022-12-18T10:44:37;100464.38;;;-2.27;53.53
39491;BME280;25175;50.140;18.990;2022-12-18T10:47:44;100495.56;;;-2.01;53.54
39491;BME280;25175;50.140;18.990;2022-12-18T10:50:53;100485.84;;;-1.96;53.46
39491;BME280;25175;50.140;18.990;2022-12-18T10:54:02;100489.84;;;-1.90;53.11
39491;BME280;25175;50.140;18.990;2022-12-18T10:57:15;100490.09;;;-1.95;53.13
39491;BME280;25175;50.140;18.990;2022-12-18T11:00:28;100492.06;;;-2.00;53.03
39491;BME280;25175;50.140;18.990;2022-12-18T11:04:09;100488.66;;;-2.00;53.35
39491;BME280;25175;50.140;18.990;2022-12-18T11:07:14;100462.75;;;-2.13;53.45
39491;BME280;25175;50.140;18.990;2022-12-18T11:10:31;100481.78;;;-2.00;53.36
39491;BME280;25175;50.140;18.990;2022-12-18T11:13:38;100472.50;;;-2.02;53.49
39491;BME280;25175;50.140;18.990;2022-12-18T11:16:50;100443.41;;;-2.20;53.29
39491;BME280;25175;50.140;18.990;2022-12-18T11:20:05;100474.06;;;-2.00;53.29
39491;BME280;25175;50.140;18.990;2022-12-18T11:23:13;100461.09;;;-1.98;53.48
39491;BME280;25175;50.140;18.990;2022-12-18T11:26:19;100465.38;;;-1.97;53.31
39491;BME280;25175;50.140;18.990;2022-12-18T11:29:33;100453.91;;;-2.07;53.18
39491;BME280;25175;50.140;18.990;2022-12-18T11:33:10;100480.81;;;-1.97;53.45
39491;BME280;25175;50.140;18.990;2022-12-18T11:36:23;100514.13;;;-1.96;53.34
39491;BME280;25175;50.140;18.990;2022-12-18T11:39:35;100477.31;;;-1.96;53.39
39491;BME280;25175;50.140;18.990;2022-12-18T11:43:02;100500.97;;;-2.22;53.50
39491;BME280;25175;50.140;18.990;2022-12-18T11:46:23;100477.72;;;-1.88;53.25
39491;BME280;25175;50.140;18.990;2022-12-18T11:49:56;100487.78;;;-1.84;53.22
39491;BME280;25175;50.140;18.990;2022-12-18T11:53:10;100480.56;;;-1.77;52.79
39491;BME280;25175;50.140;18.990;2022-12-18T11:56:29;100479.66;;;-1.76;52.90
39491;BME280;25175;50.140;18.990;2022-12-18T11:59:50;100492.28;;;-1.72;52.95
39491;BME280;25175;50.140;18.990;2022-12-18T12:03:36;100485.38;;;-1.71;52.56
39491;BME280;25175;50.140;18.990;2022-12-18T12:07:04;100487.06;;;-1.70;52.54
39491;BME280;25175;50.140;18.990;2022-12-18T12:10:36;100489.47;;;-1.67;52.48
39491;BME280;25175;50.140;18.990;2022-12-18T12:14:03;100509.06;;;-1.65;52.36
39491;BME280;25175;50.140;18.990;2022-12-18T12:17:34;100496.69;;;-1.58;51.95
39491;BME280;25175;50.140;18.990;2022-12-18T12:20:57;100486.72;;;-1.64;51.85
39491;BME280;25175;50.140;18.990;2022-12-18T12:24:33;100491.88;;;-1.49;51.46
39491;BME280;25175;50.140;18.990;2022-12-18T12:27:56;100496.94;;;-1.47;51.32
39491;BME280;25175;50.140;18.990;2022-12-18T12:31:27;100506.25;;;-1.45;50.93
39491;BME280;25175;50.140;18.990;2022-12-18T12:34:55;100507.13;;;-1.46;51.04
39491;BME280;25175;50.140;18.990;2022-12-18T12:38:17;100516.44;;;-1.43;51.01
39491;BME280;25175;50.140;18.990;2022-12-18T12:41:35;100507.72;;;-1.41;50.96
39491;BME280;25175;50.140;18.990;2022-12-18T12:45:01;100506.72;;;-1.38;50.92
39491;BME280;25175;50.140;18.990;2022-12-18T12:48:17;100505.06;;;-1.39;50.90
39491;BME280;25175;50.140;18.990;2022-12-18T12:51:41;100501.75;;;-1.41;50.72
39491;BME280;25175;50.140;18.990;2022-12-18T12:54:51;100510.56;;;-1.45;50.53
39491;BME280;25175;50.140;18.990;2022-12-18T12:58:10;100520.78;;;-1.44;50.76
39491;BME280;25175;50.140;18.990;2022-12-18T13:01:32;100519.00;;;-1.43;50.85
39491;BME280;25175;50.140;18.990;2022-12-18T13:04:51;100524.00;;;-1.40;50.78
39491;BME280;25175;50.140;18.990;2022-12-18T13:08:09;100519.44;;;-1.51;50.63
39491;BME280;25175;50.140;18.990;2022-12-18T13:11:35;100515.38;;;-1.39;50.67
39491;BME280;25175;50.140;18.990;2022-12-18T13:15:13;100508.72;;;-1.43;50.77
39491;BME280;25175;50.140;18.990;2022-12-18T13:18:29;100521.84;;;-1.32;50.84
39491;BME280;25175;50.140;18.990;2022-12-18T13:21:35;100520.38;;;-1.36;50.55
39491;BME280;25175;50.140;18.990;2022-12-18T13:24:42;100536.47;;;-1.33;50.42
39491;BME280;25175;50.140;18.990;2022-12-18T13:28:10;100539.13;;;-1.34;50.37
39491;BME280;25175;50.140;18.990;2022-12-18T13:32:00;100545.28;;;-1.37;50.50
39491;BME280;25175;50.140;18.990;2022-12-18T13:43:20;100530.56;;;-1.50;50.47
39491;BME280;25175;50.140;18.990;2022-12-18T13:46:43;100549.16;;;-1.45;50.43
39491;BME280;25175;50.140;18.990;2022-12-18T13:49:53;100551.94;;;-1.48;50.42
39491;BME280;25175;50.140;18.990;2022-12-18T13:53:04;100546.94;;;-1.51;50.38
39491;BME280;25175;50.140;18.990;2022-12-18T13:56:16;100541.78;;;-1.51;50.47
39491;BME280;25175;50.140;18.990;2022-12-18T13:59:34;100540.28;;;-1.55;50.54
39491;BME280;25175;50.140;18.990;2022-12-18T14:02:45;100549.91;;;-1.59;50.38
39491;BME280;25175;50.140;18.990;2022-12-18T14:06:03;100539.84;;;-1.63;50.30
39491;BME280;25175;50.140;18.990;2022-12-18T14:09:14;100534.19;;;-1.70;50.51
39491;BME280;25175;50.140;18.990;2022-12-18T14:12:27;100546.41;;;-1.73;50.58
39491;BME280;25175;50.140;18.990;2022-12-18T14:15:51;100543.97;;;-1.76;50.75
39491;BME280;25175;50.140;18.990;2022-12-18T14:18:57;100550.22;;;-1.80;50.80
39491;BME280;25175;50.140;18.990;2022-12-18T14:22:21;100548.63;;;-1.83;50.91
39491;BME280;25175;50.140;18.990;2022-12-18T14:25:31;100517.13;;;-2.03;50.63
39491;BME280;25175;50.140;18.990;2022-12-18T14:28:43;100547.38;;;-1.91;50.64
39491;BME280;25175;50.140;18.990;2022-12-18T14:32:06;100545.00;;;-1.96;50.51
39491;BME280;25175;50.140;18.990;2022-12-18T14:35:14;100548.75;;;-2.01;50.42
39491;BME280;25175;50.140;18.990;2022-12-18T14:38:28;100532.34;;;-2.16;50.52
39491;BME280;25175;50.140;18.990;2022-12-18T14:41:37;100548.38;;;-2.11;50.70
39491;BME280;25175;50.140;18.990;2022-12-18T14:44:43;100543.56;;;-2.17;50.78
39491;BME280;25175;50.140;18.990;2022-12-18T14:47:48;100548.91;;;-2.21;50.88
39491;BME280;25175;50.140;18.990;2022-12-18T14:51:00;100556.03;;;-2.26;50.83
39491;BME280;25175;50.140;18.990;2022-12-18T14:54:24;100557.09;;;-2.30;50.71
39491;BME280;25175;50.140;18.990;2022-12-18T14:57:36;100556.50;;;-2.35;50.82
39491;BME280;25175;50.140;18.990;2022-12-18T15:00:44;100565.41;;;-2.42;50.85
39491;BME280;25175;50.140;18.990;2022-12-18T15:03:51;100566.47;;;-2.46;50.85
39491;BME280;25175;50.140;18.990;2022-12-18T15:07:13;100570.94;;;-2.50;50.67
39491;BME280;25175;50.140;18.990;2022-12-18T15:10:26;100562.22;;;-2.64;50.09
39491;BME280;25175;50.140;18.990;2022-12-18T15:13:37;100567.50;;;-2.67;49.86
39491;BME280;25175;50.140;18.990;2022-12-18T15:16:43;100579.22;;;-2.62;49.92
39491;BME280;25175;50.140;18.990;2022-12-18T15:20:01;100572.66;;;-2.67;49.60
39491;BME280;25175;50.140;18.990;2022-12-18T15:23:15;100574.69;;;-2.74;49.65
39491;BME280;25175;50.140;18.990;2022-12-18T15:26:37;100581.88;;;-2.80;49.63
39491;BME280;25175;50.140;18.990;2022-12-18T15:33:32;100112.34;;;-5.81;49.76
39491;BME280;25175;50.140;18.990;2022-12-18T15:37:00;100581.97;;;-3.00;49.71
39491;BME280;25175;50.140;18.990;2022-12-18T15:40:15;100614.84;;;-3.08;49.56
39491;BME280;25175;50.140;18.990;2022-12-18T15:43:45;100596.53;;;-3.19;49.76
39491;BME280;25175;50.140;18.990;2022-12-18T15:47:12;100494.13;;;-3.98;49.98
39491;BME280;25175;50.140;18.990;2022-12-18T15:50:47;100591.44;;;-3.38;50.16
39491;BME280;25175;50.140;18.990;2022-12-18T15:54:00;100606.38;;;-3.47;49.93
39491;BME280;25175;50.140;18.990;2022-12-18T15:57:26;100601.78;;;-3.59;50.13
39491;BME280;25175;50.140;18.990;2022-12-18T16:01:00;100610.34;;;-3.79;50.31
39491;BME280;25175;50.140;18.990;2022-12-18T16:04:12;100615.16;;;-3.91;50.77
39491;BME280;25175;50.140;18.990;2022-12-18T16:07:39;100610.25;;;-3.96;50.94
39491;BME280;25175;50.140;18.990;2022-12-18T16:10:45;100615.44;;;-3.97;50.79
39491;BME280;25175;50.140;18.990;2022-12-18T16:13:51;100613.19;;;-4.05;50.91
39491;BME280;25175;50.140;18.990;2022-12-18T16:17:02;100609.16;;;-4.10;50.74
39491;BME280;25175;50.140;18.990;2022-12-18T16:20:13;100618.66;;;-4.12;50.91
39491;BME280;25175;50.140;18.990;2022-12-18T16:23:18;100630.63;;;-4.13;50.83
39491;BME280;25175;50.140;18.990;2022-12-18T16:26:29;100629.28;;;-4.21;50.76
39491;BME280;25175;50.140;18.990;2022-12-18T16:29:39;100635.47;;;-4.27;51.15
39491;BME280;25175;50.140;18.990;2022-12-18T16:32:47;100632.84;;;-4.25;51.00
39491;BME280;25175;50.140;18.990;2022-12-18T16:35:53;100626.84;;;-4.24;50.97
39491;BME280;25175;50.140;18.990;2022-12-18T16:39:09;100612.63;;;-4.31;50.90
39491;BME280;25175;50.140;18.990;2022-12-18T16:42:16;100620.69;;;-4.20;50.78
39491;BME280;25175;50.140;18.990;2022-12-18T16:45:36;100618.88;;;-4.18;50.75
39491;BME280;25175;50.140;18.990;2022-12-18T16:49:05;100600.56;;;-4.29;50.62
39491;BME280;25175;50.140;18.990;2022-12-18T16:52:13;100601.84;;;-4.19;50.39
39491;BME280;25175;50.140;18.990;2022-12-18T16:55:23;100610.59;;;-4.23;50.51
39491;BME280;25175;50.140;18.990;2022-12-18T16:58:29;100612.34;;;-4.25;50.47
39491;BME280;25175;50.140;18.990;2022-12-18T17:01:47;100607.22;;;-4.25;50.73
39491;BME280;25175;50.140;18.990;2022-12-18T17:04:58;100556.63;;;-4.60;50.56
39491;BME280;25175;50.140;18.990;2022-12-18T17:08:06;100601.41;;;-4.29;50.82